createdAt,value
2023-01-19T00:01:31.840Z,100524.38
2023-01-19T00:03:59.868Z,100525.38
2023-01-19T00:06:28.284Z,100534.38
2023-01-19T00:08:57.772Z,100525.38
2023-01-19T00:11:25.775Z,100534.56
2023-01-19T00:13:53.759Z,100535.53
2023-01-19T00:16:23.316Z,100532.03
2023-01-19T00:18:52.863Z,100525.66
2023-01-19T00:21:22.630Z,100528.66
2023-01-19T00:23:52.907Z,100530.47
2023-01-19T00:26:23.138Z,100529.97
2023-01-19T00:28:52.963Z,100531.44
2023-01-19T00:31:21.820Z,100533.94
2023-01-19T00:33:52.646Z,100531.78
2023-01-19T00:36:21.076Z,100531.91
2023-01-19T00:38:49.121Z,100528.25
2023-01-19T00:41:17.352Z,100524.91
2023-01-19T00:43:45.696Z,100530.63
2023-01-19T00:46:13.772Z,100531.25
2023-01-19T00:48:41.834Z,100540.56
2023-01-19T00:51:10.160Z,100533.25
2023-01-19T00:53:38.150Z,100527.59
2023-01-19T00:56:06.857Z,100533.91
2023-01-19T00:58:34.837Z,100534.91
2023-01-19T01:01:04.978Z,100528.75
2023-01-19T01:03:33.733Z,100529.06
2023-01-19T01:06:01.752Z,100531.06
2023-01-19T01:08:29.824Z,100530.88
2023-01-19T01:10:57.816Z,100537.22
2023-01-19T01:13:27.918Z,100533.88
2023-01-19T01:15:57.514Z,100527.19
2023-01-19T01:18:27.042Z,100531.84
2023-01-19T01:21:02.242Z,100532.84
2023-01-19T01:23:30.279Z,100534.13
2023-01-19T01:25:58.433Z,100537.81
2023-01-19T01:28:26.575Z,100538.66
2023-01-19T01:30:54.947Z,100538.13
2023-01-19T01:33:40.520Z,100544.44
2023-01-19T01:36:11.964Z,100543.47
2023-01-19T01:38:40.962Z,100539.09
2023-01-19T01:41:09.736Z,100541.78
2023-01-19T01:43:46.564Z,100553.59
2023-01-19T01:46:17.289Z,100554.91
2023-01-19T01:48:50.682Z,100545.09
2023-01-19T01:51:25.875Z,100553.09
2023-01-19T01:54:15.193Z,100554.09
2023-01-19T01:56:45.655Z,100563.69
2023-01-19T01:59:25.719Z,100554.69
2023-01-19T02:02:13.091Z,100549.91
2023-01-19T02:04:45.409Z,100558.38
2023-01-19T02:07:41.438Z,100558.00
2023-01-19T02:10:28.515Z,100551.97
2023-01-19T02:13:14.948Z,100559.00
2023-01-19T02:15:45.458Z,100550.63
2023-01-19T02:18:14.174Z,100559.91
2023-01-19T02:20:47.511Z,100555.44
2023-01-19T02:23:23.740Z,100553.75
2023-01-19T02:25:54.557Z,100566.63
2023-01-19T02:28:22.623Z,100556.28
2023-01-19T02:30:50.670Z,100553.91
2023-01-19T02:33:18.792Z,100560.53
2023-01-19T02:35:48.901Z,100558.88
2023-01-19T02:38:19.372Z,100563.19
2023-01-19T02:40:48.780Z,100560.16
2023-01-19T02:43:20.236Z,100566.50
2023-01-19T02:45:48.490Z,100578.13
2023-01-19T02:48:18.005Z,100574.13
2023-01-19T02:50:49.858Z,100557.28
2023-01-19T02:53:29.078Z,100567.13
2023-01-19T02:56:03.973Z,100561.09
2023-01-19T02:58:38.348Z,100568.91
2023-01-19T03:01:17.718Z,100573.59
2023-01-19T03:03:55.725Z,100569.09
2023-01-19T03:06:37.525Z,100571.38
2023-01-19T03:09:13.116Z,100573.72
2023-01-19T03:11:48.070Z,100571.91
2023-01-19T03:14:22.939Z,100572.22
2023-01-19T03:16:56.015Z,100571.38
2023-01-19T03:19:50.421Z,100575.19
2023-01-19T03:22:24.320Z,100572.31
2023-01-19T03:24:55.827Z,100568.94
2023-01-19T03:27:27.440Z,100569.38
2023-01-19T03:29:59.230Z,100580.75
2023-01-19T03:32:30.691Z,100570.53
2023-01-19T03:35:02.608Z,100581.38
2023-01-19T03:37:32.746Z,100582.19
2023-01-19T03:40:01.455Z,100571.66
2023-01-19T03:42:30.240Z,100576.03
2023-01-19T03:45:02.103Z,100576.03
2023-01-19T03:47:30.580Z,100566.50
2023-01-19T03:49:59.596Z,100576.69
2023-01-19T03:52:29.575Z,100578.97
2023-01-19T03:54:57.597Z,100574.91
2023-01-19T03:57:25.767Z,100580.88
2023-01-19T03:59:54.555Z,100578.53
2023-01-19T04:02:24.362Z,100585.81
2023-01-19T04:04:52.531Z,100582.19
2023-01-19T04:07:20.572Z,100581.88
2023-01-19T04:09:48.605Z,100579.06
2023-01-19T04:12:16.848Z,100574.72
2023-01-19T04:14:44.987Z,100579.91
2023-01-19T04:17:13.015Z,100579.22
2023-01-19T04:19:43.198Z,100572.22
2023-01-19T04:22:11.567Z,100576.56
2023-01-19T04:24:39.529Z,100578.53
2023-01-19T04:27:07.531Z,100587.53
2023-01-19T04:29:35.451Z,100583.84
2023-01-19T04:32:03.498Z,100579.53
2023-01-19T04:34:31.436Z,100583.34
2023-01-19T04:37:00.915Z,100587.53
2023-01-19T04:39:28.884Z,100579.53
2023-01-19T04:41:57.573Z,100578.22
2023-01-19T04:44:25.612Z,100583.56
2023-01-19T04:46:54.006Z,100584.56
2023-01-19T04:49:22.040Z,100581.06
2023-01-19T04:51:50.026Z,100573.19
2023-01-19T04:54:19.391Z,100583.03
2023-01-19T04:56:47.444Z,100576.88
2023-01-19T04:59:15.450Z,100577.84
2023-01-19T05:01:43.436Z,100587.97
2023-01-19T05:04:11.365Z,100576.47
2023-01-19T05:06:39.715Z,100577.63
2023-01-19T05:09:09.112Z,100574.25
2023-01-19T05:11:38.579Z,100579.75
2023-01-19T05:14:06.921Z,100578.06
2023-01-19T05:16:35.635Z,100577.38
2023-01-19T05:19:03.652Z,100581.41
2023-01-19T05:21:31.737Z,100577.75
2023-01-19T05:24:25.040Z,100575.69
2023-01-19T05:26:54.423Z,100569.38
2023-01-19T05:29:22.918Z,100575.56
2023-01-19T05:31:50.913Z,100579.50
2023-01-19T05:34:20.357Z,100574.34
2023-01-19T05:36:48.615Z,100586.34
2023-01-19T05:39:16.955Z,100576.69
2023-01-19T05:41:45.794Z,100589.31
2023-01-19T05:44:15.363Z,100578.38
2023-01-19T05:46:43.406Z,100581.63
2023-01-19T05:49:13.396Z,100577.97
2023-01-19T05:52:06.127Z,100580.94
2023-01-19T05:54:34.234Z,100579.28
2023-01-19T05:57:03.055Z,100575.09
2023-01-19T05:59:32.421Z,100579.28
2023-01-19T06:02:01.120Z,100579.59
2023-01-19T06:04:29.302Z,100574.69
2023-01-19T06:06:57.441Z,100572.72
2023-01-19T06:09:25.538Z,100570.91
2023-01-19T06:11:56.559Z,100568.06
2023-01-19T06:14:25.118Z,100561.91
2023-01-19T06:16:54.527Z,100574.25
2023-01-19T06:19:22.577Z,100567.94
2023-01-19T06:21:52.452Z,100565.56
2023-01-19T06:24:20.594Z,100574.25
2023-01-19T06:26:48.556Z,100570.91
2023-01-19T06:29:16.591Z,100563.03
2023-01-19T06:31:44.602Z,100571.59
2023-01-19T06:34:14.034Z,100567.22
2023-01-19T06:36:42.383Z,100566.25
2023-01-19T06:39:13.015Z,100569.75
2023-01-19T06:41:41.306Z,100575.09
2023-01-19T06:44:09.341Z,100571.03
2023-01-19T06:46:37.529Z,100577.34
2023-01-19T06:49:05.514Z,100576.91
2023-01-19T06:51:35.468Z,100586.03
2023-01-19T06:54:03.605Z,100579.03
2023-01-19T06:56:31.580Z,100583.78
2023-01-19T06:58:59.618Z,100573.38
2023-01-19T07:01:27.934Z,100583.38
2023-01-19T07:03:56.136Z,100587.72
2023-01-19T07:06:24.086Z,100593.88
2023-01-19T07:08:53.604Z,100591.91
2023-01-19T07:11:30.772Z,100596.41
2023-01-19T07:14:01.113Z,100605.22
2023-01-19T07:16:29.321Z,100606.34
2023-01-19T07:18:57.281Z,100610.41
2023-01-19T07:21:26.389Z,100613.22
2023-01-19T07:23:56.537Z,100613.22
2023-01-19T07:26:25.421Z,100611.56
2023-01-19T07:28:53.802Z,100611.56
2023-01-19T07:31:23.714Z,100615.75
2023-01-19T07:33:51.990Z,100623.56
2023-01-19T07:36:19.948Z,100617.41
2023-01-19T07:38:47.943Z,100621.34
2023-01-19T07:41:17.400Z,100623.88
2023-01-19T07:43:45.396Z,100625.53
2023-01-19T07:46:13.442Z,100630.88
2023-01-19T07:48:41.573Z,100620.91
2023-01-19T07:51:12.969Z,100618.63
2023-01-19T07:53:42.002Z,100623.28
2023-01-19T07:56:10.244Z,100627.75
2023-01-19T07:58:39.911Z,100633.94
2023-01-19T08:01:09.428Z,100635.75
2023-01-19T08:03:37.815Z,100646.56
2023-01-19T08:06:06.889Z,100642.09
2023-01-19T08:08:35.571Z,100641.22
2023-01-19T08:11:03.946Z,100641.09
2023-01-19T08:13:32.071Z,100646.28
2023-01-19T08:16:01.535Z,100643.44
2023-01-19T08:18:29.546Z,100636.16
2023-01-19T08:20:59.507Z,100632.50
2023-01-19T08:23:28.101Z,100630.66
2023-01-19T08:25:56.411Z,100633.31
2023-01-19T08:28:24.437Z,100636.69
2023-01-19T08:30:55.469Z,100638.38
2023-01-19T08:33:25.387Z,100639.91
2023-01-19T08:35:54.837Z,100645.25
2023-01-19T08:38:22.901Z,100649.69
2023-01-19T08:40:50.961Z,100653.22
2023-01-19T08:43:19.389Z,100653.06
2023-01-19T08:45:52.113Z,100660.75
2023-01-19T08:48:22.422Z,100658.25
2023-01-19T08:50:53.364Z,100662.75
2023-01-19T08:53:23.745Z,100660.75
2023-01-19T08:55:55.935Z,100657.66
2023-01-19T08:58:24.134Z,100667.63
2023-01-19T09:00:52.970Z,100666.47
2023-01-19T09:03:22.766Z,100668.19
2023-01-19T09:05:56.173Z,100656.53
2023-01-19T09:08:24.206Z,100669.16
2023-01-19T09:10:52.801Z,100662.16
2023-01-19T09:13:21.269Z,100667.88
2023-01-19T09:15:49.420Z,100666.88
2023-01-19T09:18:19.851Z,100671.06
2023-01-19T09:20:49.675Z,100663.91
2023-01-19T09:23:20.918Z,100669.78
2023-01-19T09:25:49.648Z,100667.28
2023-01-19T09:28:18.657Z,100666.97
2023-01-19T09:30:46.743Z,100670.72
2023-01-19T09:33:16.578Z,100672.38
2023-01-19T09:35:46.998Z,100685.28
2023-01-19T09:38:16.937Z,100673.47
2023-01-19T09:40:49.572Z,100683.06
2023-01-19T09:43:27.915Z,100680.25
2023-01-19T09:45:59.121Z,100677.50
2023-01-19T09:48:34.367Z,100680.41
2023-01-19T09:51:05.737Z,100688.94
2023-01-19T09:53:44.749Z,100686.13
2023-01-19T09:56:18.303Z,100689.16
2023-01-19T09:58:47.195Z,100683.91
2023-01-19T10:01:27.297Z,100680.91
2023-01-19T10:04:26.521Z,100690.69
2023-01-19T10:07:05.856Z,100687.53
2023-01-19T10:09:43.024Z,100690.25
2023-01-19T10:12:21.663Z,100688.03
2023-01-19T10:15:01.585Z,100691.31
2023-01-19T10:17:40.036Z,100686.00
2023-01-19T10:20:16.121Z,100697.56
2023-01-19T10:22:47.929Z,100700.28
2023-01-19T10:25:20.978Z,100694.16
2023-01-19T10:27:50.872Z,100698.88
2023-01-19T10:30:23.479Z,100699.03
2023-01-19T10:32:52.143Z,100696.75
2023-01-19T10:35:24.504Z,100696.94
2023-01-19T10:37:53.953Z,100704.66
2023-01-19T10:40:29.065Z,100692.28
2023-01-19T10:42:59.312Z,100701.00
2023-01-19T10:45:31.161Z,100698.34
2023-01-19T10:48:05.673Z,100698.03
2023-01-19T10:50:35.628Z,100702.75
2023-01-19T10:53:06.469Z,100706.91
2023-01-19T10:55:38.065Z,100699.25
2023-01-19T10:58:27.365Z,100697.25
2023-01-19T11:00:55.590Z,100693.91
2023-01-19T11:03:25.323Z,100688.75
2023-01-19T11:05:53.578Z,100685.75
2023-01-19T11:08:30.020Z,100690.28
2023-01-19T11:11:04.329Z,100692.13
2023-01-19T11:13:33.811Z,100688.44
2023-01-19T11:16:08.019Z,100693.13
2023-01-19T11:18:38.091Z,100680.78
2023-01-19T11:21:09.008Z,100687.63
2023-01-19T11:23:42.939Z,100689.47
2023-01-19T11:26:16.367Z,100689.31
2023-01-19T11:28:51.349Z,100691.50
2023-01-19T11:31:31.213Z,100691.16
2023-01-19T11:34:26.031Z,100689.81
2023-01-19T11:36:59.031Z,100694.16
2023-01-19T11:39:28.814Z,100691.16
2023-01-19T11:41:59.392Z,100695.84
2023-01-19T11:44:32.051Z,100689.16
2023-01-19T11:47:03.164Z,100688.44
2023-01-19T11:49:34.650Z,100681.41
2023-01-19T11:52:05.230Z,100680.03
2023-01-19T11:54:37.142Z,100680.00
2023-01-19T11:57:13.550Z,100677.81
2023-01-19T11:59:43.053Z,100679.94
2023-01-19T12:02:21.574Z,100673.22
2023-01-19T12:04:51.953Z,100680.38
2023-01-19T12:07:27.059Z,100683.03
2023-01-19T12:10:02.027Z,100669.63
2023-01-19T12:12:32.154Z,100669.44
2023-01-19T12:15:06.508Z,100666.41
2023-01-19T12:17:38.775Z,100666.34
2023-01-19T12:20:21.173Z,100663.66
2023-01-19T12:22:57.586Z,100657.41
2023-01-19T12:25:34.548Z,100653.75
2023-01-19T12:28:04.011Z,100646.88
2023-01-19T12:30:33.432Z,100652.38
2023-01-19T12:33:23.565Z,100649.56
2023-01-19T12:36:00.818Z,100648.69
2023-01-19T12:38:41.305Z,100645.75
2023-01-19T12:41:29.087Z,100645.47
2023-01-19T12:44:22.322Z,100638.50
2023-01-19T12:46:55.658Z,100633.81
2023-01-19T12:49:30.203Z,100634.75
2023-01-19T12:52:18.026Z,100640.31
2023-01-19T12:54:54.324Z,100639.75
2023-01-19T12:57:26.142Z,100643.56
2023-01-19T12:59:59.438Z,100639.47
2023-01-19T13:02:54.312Z,100633.97
2023-01-19T13:05:41.811Z,100631.47
2023-01-19T13:08:18.680Z,100634.25
2023-01-19T13:11:17.015Z,100630.22
2023-01-19T13:13:46.538Z,100630.00
2023-01-19T13:17:07.065Z,100635.44
2023-01-19T13:20:49.872Z,100628.13
2023-01-19T13:23:24.006Z,100635.19
2023-01-19T13:25:55.479Z,100635.72
2023-01-19T13:28:51.346Z,100623.03
2023-01-19T13:31:48.926Z,100625.63
2023-01-19T13:34:43.716Z,100623.03
2023-01-19T13:37:19.989Z,100618.41
2023-01-19T13:39:53.327Z,100620.91
2023-01-19T13:42:30.350Z,100628.31
2023-01-19T13:45:02.702Z,100631.66
2023-01-19T13:47:39.002Z,100635.09
2023-01-19T13:50:08.332Z,100632.03
2023-01-19T13:52:36.417Z,100639.72
2023-01-19T13:55:09.489Z,100634.34
2023-01-19T13:57:41.974Z,100634.44
2023-01-19T14:00:18.727Z,100629.44
2023-01-19T14:02:56.638Z,100623.94
2023-01-19T14:05:28.900Z,100625.91
2023-01-19T14:08:05.240Z,100629.69
2023-01-19T14:10:35.514Z,100632.78
2023-01-19T14:13:05.753Z,100638.69
2023-01-19T14:15:35.705Z,100629.69
2023-01-19T14:18:25.207Z,100644.53
2023-01-19T14:20:55.256Z,100643.06
2023-01-19T14:23:45.037Z,100649.53
2023-01-19T14:26:46.077Z,100641.56
2023-01-19T14:29:25.419Z,100654.28
2023-01-19T14:32:07.004Z,100658.34
2023-01-19T14:34:39.958Z,100667.19
2023-01-19T14:37:19.799Z,100665.41
2023-01-19T14:39:50.199Z,100667.72
2023-01-19T14:42:23.595Z,100672.66
2023-01-19T14:44:53.949Z,100662.53
2023-01-19T14:47:38.422Z,100668.31
2023-01-19T14:50:19.778Z,100662.34
2023-01-19T14:52:53.149Z,100662.34
2023-01-19T14:55:26.717Z,100668.09
2023-01-19T14:57:56.362Z,100669.19
2023-01-19T15:00:25.073Z,100669.00
2023-01-19T15:02:53.094Z,100672.59
2023-01-19T15:05:21.551Z,100673.63
2023-01-19T15:07:49.589Z,100676.69
2023-01-19T15:10:21.865Z,100678.78
2023-01-19T15:12:51.223Z,100684.75
2023-01-19T15:15:25.788Z,100677.97
2023-01-19T15:17:56.311Z,100688.34
2023-01-19T15:20:24.651Z,100680.38
2023-01-19T15:22:52.746Z,100681.19
2023-01-19T15:25:22.592Z,100686.56
2023-01-19T15:27:50.773Z,100685.53
2023-01-19T15:30:23.109Z,100694.69
2023-01-19T15:32:51.448Z,100699.09
2023-01-19T15:35:22.234Z,100709.19
2023-01-19T15:37:51.356Z,100718.94
2023-01-19T15:40:22.685Z,100733.56
2023-01-19T15:42:50.973Z,100735.59
2023-01-19T15:45:50.130Z,100731.03
2023-01-19T15:48:20.023Z,100734.09
2023-01-19T15:50:48.288Z,100728.72
2023-01-19T15:53:18.795Z,100733.78
2023-01-19T15:55:50.975Z,100732.44
2023-01-19T15:58:20.686Z,100733.97
2023-01-19T16:00:55.738Z,100723.59
2023-01-19T16:03:24.321Z,100733.16
2023-01-19T16:05:52.761Z,100743.88
2023-01-19T16:08:22.078Z,100745.56
2023-01-19T16:10:50.086Z,100746.94
2023-01-19T16:13:18.060Z,100753.50
2023-01-19T16:15:46.142Z,100759.25
2023-01-19T16:18:15.599Z,100754.53
2023-01-19T16:20:43.788Z,100767.50
2023-01-19T16:23:15.607Z,100758.28
2023-01-19T16:25:44.226Z,100770.22
2023-01-19T16:28:12.223Z,100770.88
2023-01-19T16:30:40.260Z,100774.56
2023-01-19T16:33:11.579Z,100782.31
2023-01-19T16:35:41.097Z,100784.31
2023-01-19T16:38:09.492Z,100789.91
2023-01-19T16:40:38.017Z,100793.44
2023-01-19T16:43:06.112Z,100784.38
2023-01-19T16:45:34.291Z,100800.19
2023-01-19T16:48:02.400Z,100793.84
2023-01-19T16:50:30.402Z,100803.22
2023-01-19T16:53:00.176Z,100799.72
2023-01-19T16:55:28.206Z,100811.47
2023-01-19T16:57:56.662Z,100818.00
2023-01-19T17:00:25.118Z,100815.00
2023-01-19T17:02:53.142Z,100822.22
2023-01-19T17:05:21.291Z,100832.97
2023-01-19T17:07:49.410Z,100830.44
2023-01-19T17:10:19.031Z,100839.16
2023-01-19T17:12:47.058Z,100839.16
2023-01-19T17:15:15.280Z,100842.53
2023-01-19T17:17:43.271Z,100847.22
2023-01-19T17:20:12.520Z,100843.34
2023-01-19T17:22:40.762Z,100851.56
2023-01-19T17:25:09.658Z,100859.13
2023-01-19T17:27:39.045Z,100852.72
2023-01-19T17:30:07.941Z,100863.31
2023-01-19T17:32:36.008Z,100853.75
2023-01-19T17:35:04.235Z,100857.78
2023-01-19T17:37:32.379Z,100860.63
2023-01-19T17:40:00.608Z,100862.97
2023-01-19T17:42:28.871Z,100869.34
2023-01-19T17:44:58.368Z,100875.34
2023-01-19T17:47:26.548Z,100889.75
2023-01-19T17:49:56.076Z,100887.41
2023-01-19T17:52:24.187Z,100886.22
2023-01-19T17:54:52.252Z,100890.06
2023-01-19T17:57:20.299Z,100883.53
2023-01-19T17:59:48.518Z,100885.53
2023-01-19T18:02:18.268Z,100900.09
2023-01-19T18:04:46.351Z,100909.63
2023-01-19T18:07:14.497Z,100908.13
2023-01-19T18:09:42.536Z,100918.34
2023-01-19T18:12:10.647Z,100910.63
2023-01-19T18:14:40.293Z,100911.13
2023-01-19T18:17:08.636Z,100922.00
2023-01-19T18:19:38.017Z,100925.19
2023-01-19T18:22:06.135Z,100931.19
2023-01-19T18:24:34.168Z,100940.22
2023-01-19T18:27:02.567Z,100943.22
2023-01-19T18:29:30.717Z,100947.91
2023-01-19T18:31:59.131Z,100948.56
2023-01-19T18:34:27.155Z,100945.97
2023-01-19T18:36:56.644Z,100954.16
2023-01-19T18:39:24.649Z,100949.44
2023-01-19T18:41:52.773Z,100956.97
2023-01-19T18:44:22.004Z,100959.13
2023-01-19T18:46:50.479Z,100959.28
2023-01-19T18:49:18.485Z,100960.97
2023-01-19T18:51:46.589Z,100967.91
2023-01-19T18:54:17.478Z,100965.19
2023-01-19T18:56:45.681Z,100966.84
2023-01-19T18:59:13.709Z,100961.81
2023-01-19T19:01:41.980Z,100968.19
2023-01-19T19:04:10.087Z,100968.78
2023-01-19T19:06:38.227Z,100972.25
2023-01-19T19:09:06.595Z,100971.28
2023-01-19T19:11:36.530Z,100977.97
2023-01-19T19:14:04.865Z,100978.28
2023-01-19T19:16:36.199Z,100983.44
2023-01-19T19:19:05.168Z,100984.59
2023-01-19T19:21:33.280Z,100983.13
2023-01-19T19:24:01.340Z,100982.34
2023-01-19T19:26:29.753Z,100982.72
2023-01-19T19:28:59.274Z,100993.19
2023-01-19T19:31:28.247Z,101000.34
2023-01-19T19:33:56.990Z,100998.19
2023-01-19T19:36:26.873Z,101002.19
2023-01-19T19:38:55.318Z,101005.28
2023-01-19T19:41:26.973Z,101006.44
2023-01-19T19:43:56.416Z,101007.59
2023-01-19T19:46:31.872Z,101010.91
2023-01-19T19:49:01.677Z,101016.06
2023-01-19T19:51:30.236Z,101015.38
2023-01-19T19:53:59.796Z,101013.91
2023-01-19T19:56:29.258Z,101019.97
2023-01-19T19:59:02.888Z,101017.53
2023-01-19T20:01:35.373Z,101030.22
2023-01-19T20:04:08.924Z,101031.75
2023-01-19T20:06:39.933Z,101032.69
2023-01-19T20:09:12.847Z,101032.22
2023-01-19T20:11:44.740Z,101038.38
2023-01-19T20:14:16.079Z,101049.53
2023-01-19T20:16:45.835Z,101042.31
2023-01-19T20:19:14.050Z,101056.00
2023-01-19T20:21:43.139Z,101046.59
2023-01-19T20:24:15.297Z,101052.81
2023-01-19T20:26:45.753Z,101064.81
2023-01-19T20:29:14.308Z,101060.47
2023-01-19T20:31:46.318Z,101061.50
2023-01-19T20:34:16.281Z,101068.63
2023-01-19T20:36:49.492Z,101064.97
2023-01-19T20:39:18.073Z,101069.09
2023-01-19T20:42:13.599Z,101074.06
2023-01-19T20:44:41.673Z,101083.22
2023-01-19T20:47:11.357Z,101074.59
2023-01-19T20:49:39.681Z,101090.25
2023-01-19T20:52:07.810Z,101087.56
2023-01-19T20:54:36.091Z,101090.84
2023-01-19T20:57:04.320Z,101101.88
2023-01-19T20:59:34.133Z,101101.00
2023-01-19T21:02:02.250Z,101100.47
2023-01-19T21:04:31.701Z,101100.78
2023-01-19T21:06:59.823Z,101105.88
2023-01-19T21:09:27.939Z,101110.63
2023-01-19T21:11:57.578Z,101112.91
2023-01-19T21:14:25.886Z,101106.03
2023-01-19T21:16:56.451Z,101111.81
2023-01-19T21:24:11.370Z,101123.84
2023-01-19T21:26:41.720Z,101128.78
2023-01-19T21:29:13.331Z,101131.63
2023-01-19T21:31:41.731Z,101135.25
2023-01-19T21:34:10.347Z,101134.59
2023-01-19T21:36:38.512Z,101140.06
2023-01-19T21:39:08.132Z,101157.22
2023-01-19T21:41:39.815Z,101150.88
2023-01-19T21:44:07.920Z,101152.84
2023-01-19T21:46:35.868Z,101151.47
2023-01-19T21:49:06.154Z,101154.44
2023-01-19T21:51:36.817Z,101160.91
2023-01-19T21:54:54.357Z,101173.44
2023-01-19T21:57:23.785Z,101173.97
2023-01-19T21:59:51.769Z,101172.97
2023-01-19T22:02:37.227Z,101176.09
2023-01-19T22:05:07.577Z,101179.31
2023-01-19T22:07:35.947Z,101182.69
2023-01-19T22:10:04.487Z,101181.44
2023-01-19T22:12:33.866Z,101190.84
2023-01-19T22:15:01.954Z,101185.78
2023-01-19T22:17:30.867Z,101190.72
2023-01-19T22:19:58.964Z,101190.00
2023-01-19T22:22:27.258Z,101193.56
2023-01-19T22:24:55.314Z,101191.56
2023-01-19T22:27:23.337Z,101189.19
2023-01-19T22:29:52.800Z,101192.97
2023-01-19T22:32:20.963Z,101191.16
2023-01-19T22:34:49.250Z,101192.69
2023-01-19T22:37:19.633Z,101199.75
2023-01-19T22:39:47.620Z,101204.38
2023-01-19T22:42:15.610Z,101209.72
2023-01-19T22:44:43.700Z,101213.25
2023-01-19T22:47:13.227Z,101218.16
2023-01-19T22:49:41.248Z,101210.44
2023-01-19T22:52:09.287Z,101225.50
2023-01-19T22:54:37.288Z,101219.97
2023-01-19T22:57:06.951Z,101221.53
2023-01-19T22:59:35.068Z,101225.31
2023-01-19T23:02:03.182Z,101224.50
2023-01-19T23:04:32.736Z,101221.41
2023-01-19T23:07:00.836Z,101216.00
2023-01-19T23:09:28.859Z,101220.09
2023-01-19T23:11:56.865Z,101222.94
2023-01-19T23:14:24.966Z,101225.03
2023-01-19T23:16:53.093Z,101220.09
2023-01-19T23:19:21.158Z,101226.41
2023-01-19T23:21:53.313Z,101225.44
2023-01-19T23:24:21.362Z,101220.94
2023-01-19T23:26:50.059Z,101226.13
2023-01-19T23:29:19.629Z,101223.00
2023-01-19T23:31:49.546Z,101226.22
2023-01-19T23:34:17.843Z,101224.44
2023-01-19T23:36:46.047Z,101236.19
2023-01-19T23:39:18.037Z,101238.63
2023-01-19T23:41:46.762Z,101240.72
2023-01-19T23:44:14.843Z,101245.50
2023-01-19T23:46:43.881Z,101245.06
2023-01-19T23:49:12.076Z,101245.06
2023-01-19T23:51:40.998Z,101248.03
2023-01-19T23:54:09.103Z,101241.13
2023-01-19T23:56:39.265Z,101239.81
2023-01-19T23:59:09.323Z,101238.97
